메인 페이지
METAR-TAF:

METAR-TAF

공항 :

알마티 국제공항

알마티, 카자흐스탄

위도: 43-14N, 경도: 076-56E, 고도: 847m

현재 날씨관측

예보는 35분 전, 04:30시(UTC)에 발표되었습니다.
여러 방향의 바람 2kt
온도 -13°C
습도 85%
기압 1034 hPa
시정: 2200m
고도 1100ft 상공 구름 보통
박무, 연기

METAR: UAAA 150430Z VRB01MPS 2200 BR FU SCT011 M13/M15 Q1034 R88/91//50 NOSIG

시각: 11:05 (05:05 UTC)

예보

예보는 37분 전, 04:28시(UTC)에 발표되었습니다.
예보 대상 시간: 15일 04시부터 15일 24시까지 (UTC)
남남동10kt
시정: 3000m
고도 1000ft 상공 구름 많음
고도 10000ft 상공 구름 많음
박무, 연기
일시적
15일 04시부터 15일 06시까지 (UTC)
시정: 0400m
고도 200ft 상공 구름 많음
어는 안개
전환 중
15일 06시부터 15일 07시까지 (UTC)
북북동10kt
시정 10km 이상
전환 중
15일 12시부터 15일 13시까지 (UTC)
남동10kt
시정: 2000m
박무, 연기
일시적
15일 16시부터 15일 24시까지 (UTC)
시정: 0600m
고도 300ft 상공 구름 많음
어는 안개

TAF: UAAA 150428Z 1504/1524 16005MPS 3000 BR FU BKN010 BKN100 TXM08/1509Z TNM13/1505Z TEMPO 1504/1506 0400 FZFG BKN002 BECMG 1506/1507 02005MPS 9999 NSW BECMG 1512/1513 14005MPS 2000 BR FU TEMPO 1516/1524 0600 FZFG BKN003

4,000개 이상의 공항 관측 자료 및 예보 (METAR 및 TAF 보고).

지도상에서 검색 가능한 기상관측소가 노란 점과 빨간 점으로 표시되어 있습니다.

기상관측소 명을 보려면 표시 위로 마우스를 이동하세요.

날씨 관측과 예보를 보려면 클릭하세요.

지도 변경 : 확대하려면 엑스 표시가 있는 녹색 버튼, 축소하려면 빼기 표시가 있는 녹색 버튼, 다음 페이지의 지도를 보려면 녹색 화살표를 클릭하세요.


METAR-TAF: